LIPQ/TRS METAR and TAF weather

Enter ICAO airport designator
Station Type Date Time Source
LIPQ METAR 2019/12/10 05:50 UTC NOAA

LIPQ 100550Z 33004KT CAVOK 02/02 Q1013


Station Type Date Time Source
LIPQ Decoded METAR 2019/12/10 05:50 UTC NOAA

Ronchi Dei Legionari, Italy (LIPQ) 45-49N 013-29E 12M
Dec 10, 2019 - 12:50 AM EST / 2019.12.10 0550 UTC
Wind: from the NNW (330 degrees) at 5 MPH (4 KT):0
Visibility: greater than 7 mile(s):0
Temperature: 35 F (2 C)
Windchill: 30 F (-1 C):1
Dew Point: 35 F (2 C)
Relative Humidity: 100%
Pressure (altimeter): 29.91 in. Hg (1013 hPa)
ob: LIPQ 100550Z 33004KT CAVOK 02/02 Q1013
cycle: 6

Station Type Date Time Source
LIPQ TAF 2019/12/10 06:24 UTC NOAA

TAF LIPQ 100500Z 1006/1106 VRB03KT 5000 BR NSC
BECMG 1006/1008 01010KT 9999
BECMG 1012/1014 08012KT

Example: see airport list